TimeEDT,TemperatureF,Dew PointF,Humidity,Sea Level PressureIn,VisibilityMPH,Wind Direction,Wind SpeedMPH,Gust SpeedMPH,PrecipitationIn,Events,Conditions,WindDirDegrees,DateUTC
12:53 AM,30.9,18.0,59,30.35,10.0,NW,9.2,-,N/A,,Clear,320,2013-04-21 04:53:00
1:53 AM,30.9,17.1,57,30.35,10.0,NW,10.4,23.0,N/A,,Clear,320,2013-04-21 05:53:00
2:53 AM,30.0,17.1,59,30.36,10.0,NW,15.0,20.7,N/A,,Clear,320,2013-04-21 06:53:00
3:53 AM,28.9,18.0,64,30.38,10.0,NW,13.8,23.0,N/A,,Clear,320,2013-04-21 07:53:00
4:53 AM,28.0,18.0,66,30.40,10.0,NNW,13.8,20.7,N/A,,Clear,340,2013-04-21 08:53:00
5:53 AM,27.0,18.0,69,30.43,10.0,NNW,11.5,-,N/A,,Clear,330,2013-04-21 09:53:00
6:53 AM,27.0,19.0,72,30.48,10.0,North,11.5,20.7,N/A,,Clear,350,2013-04-21 10:53:00
7:53 AM,28.9,18.0,64,30.51,10.0,NNW,12.7,25.3,N/A,,Clear,340,2013-04-21 11:53:00
8:53 AM,30.9,18.0,59,30.53,10.0,North,15.0,20.7,N/A,,Clear,350,2013-04-21 12:53:00
9:53 AM,34.0,19.0,54,30.55,10.0,North,13.8,19.6,N/A,,Clear,350,2013-04-21 13:53:00
10:53 AM,36.0,19.9,52,30.57,10.0,NNW,9.2,19.6,N/A,,Clear,330,2013-04-21 14:53:00
11:53 AM,39.0,19.9,46,30.57,10.0,Variable,6.9,16.1,N/A,,Clear,0,2013-04-21 15:53:00
12:53 PM,42.1,19.0,40,30.57,10.0,North,10.4,18.4,N/A,,Clear,10,2013-04-21 16:53:00
1:53 PM,43.0,19.0,38,30.56,10.0,North,12.7,18.4,N/A,,Clear,360,2013-04-21 17:53:00
2:53 PM,46.0,19.0,34,30.55,10.0,NNE,11.5,-,N/A,,Clear,30,2013-04-21 18:53:00
3:53 PM,46.9,19.9,34,30.54,10.0,Calm,Calm,-,N/A,,Clear,0,2013-04-21 19:53:00
4:53 PM,46.9,18.0,32,30.54,10.0,ENE,8.1,-,N/A,,Clear,70,2013-04-21 20:53:00
5:53 PM,46.9,17.1,30,30.55,10.0,NNE,4.6,-,N/A,,Clear,30,2013-04-21 21:53:00
6:53 PM,46.0,17.1,31,30.55,10.0,ESE,3.5,-,N/A,,Clear,120,2013-04-21 22:53:00
7:53 PM,44.1,16.0,32,30.57,10.0,ENE,3.5,-,N/A,,Clear,60,2013-04-21 23:53:00
8:53 PM,39.9,19.9,45,30.59,10.0,East,4.6,-,N/A,,Clear,90,2013-04-22 00:53:00
9:53 PM,39.9,19.9,45,30.60,10.0,East,5.8,-,N/A,,Clear,90,2013-04-22 01:53:00
10:53 PM,37.9,19.0,47,30.61,10.0,East,5.8,-,N/A,,Clear,80,2013-04-22 02:53:00
11:53 PM,37.0,19.0,48,30.61,10.0,ENE,5.8,-,N/A,,Clear,70,2013-04-22 03:53:00